Time;durP1;ratioP1;P1;durP2;ratioP2;P2;SDS_P1;SDS_P2;PMS_P1;PMS_P2;Temp;Humidity;BMP_temperature;BMP_pressure;BME280_temperature;BME280_humidity;BME280_pressure;Samples;Min_cycle;Max_cycle;Signal;HPM_P1;HPM_P2
2023/07/04 00:01:48;;;;;;;;;;;12.20;99.90;;;;;;5090601;28;19993;-78
2023/07/04 00:04:17;;;;;;;;;;;12.20;99.90;;;;;;5092793;28;19928;-80
2023/07/04 00:06:43;;;;;;;;;;;12.30;99.90;;;;;;5086901;28;19945;-80
2023/07/04 00:09:09;;;;;;;;;;;12.20;99.90;;;;;;5092540;28;20300;-79
2023/07/04 00:11:34;;;;;;;;;;;12.20;99.90;;;;;;5092976;28;19931;-80
2023/07/04 00:14:00;;;;;;;;;;;12.30;99.90;;;;;;5087247;28;20358;-79
2023/07/04 00:16:25;;;;;;;;;;;12.20;99.90;;;;;;5091470;28;20370;-79
2023/07/04 00:18:51;;;;;;;;;;;12.20;99.90;;;;;;5095996;28;19947;-80
2023/07/04 00:21:17;;;;;;;;;;;12.20;99.90;;;;;;5112170;28;19924;-80
2023/07/04 00:23:46;;;;;;;;;;;12.20;99.90;;;;;;5088070;28;19924;-79
2023/07/04 00:26:13;;;;;;;;;;;12.10;99.90;;;;;;5086482;28;20281;-79
2023/07/04 00:28:38;;;;;;;;;;;12.10;99.90;;;;;;5088015;28;19932;-79
2023/07/04 00:31:05;;;;;;;;;;;12.10;99.90;;;;;;5090124;28;19947;-79
2023/07/04 00:33:31;;;;;;;;;;;12.10;99.90;;;;;;5105134;28;19924;-79
2023/07/04 00:36:05;;;;;;;;;;;12.10;99.90;;;;;;5077114;28;20384;-79
2023/07/04 00:38:34;;;;;;;;;;;12.10;99.90;;;;;;5092254;28;19930;-77
2023/07/04 00:41:01;;;;;;;;;;;12.10;99.90;;;;;;5094223;28;19987;-79
2023/07/04 00:43:45;;;;;;;;;;;12.00;99.90;;;;;;5097788;28;19983;-78
2023/07/04 00:46:12;;;;;;;;;;;12.00;99.90;;;;;;5097894;28;19935;-80
2023/07/04 00:48:39;;;;;;;;;;;12.00;99.90;;;;;;5098535;28;19930;-79
2023/07/04 00:51:05;;;;;;;;;;;12.00;99.90;;;;;;5099215;28;19924;-79
2023/07/04 00:53:30;;;;;;;;;;;12.00;99.90;;;;;;5110096;28;19932;-80
2023/07/04 00:55:56;;;;;;;;;;;12.00;99.90;;;;;;5095109;28;19924;-79
2023/07/04 00:58:22;;;;;;;;;;;12.00;99.90;;;;;;5089996;28;19985;-80
2023/07/04 01:00:47;;;;;;;;;;;11.90;99.90;;;;;;5100085;28;19934;-79
2023/07/04 01:03:14;;;;;;;;;;;12.00;99.90;;;;;;5095226;28;19932;-80
2023/07/04 01:05:46;;;;;;;;;;;11.90;99.90;;;;;;5090600;28;19932;-80
2023/07/04 01:08:18;;;;;;;;;;;11.90;99.90;;;;;;5105020;28;19982;-79
2023/07/04 01:10:44;;;;;;;;;;;11.90;99.90;;;;;;5097441;28;20448;-80
2023/07/04 01:13:28;;;;;;;;;;;11.90;99.90;;;;;;5100435;28;20286;-79
2023/07/04 01:15:54;;;;;;;;;;;11.90;99.90;;;;;;5102506;28;20003;-79
2023/07/04 01:18:20;;;;;;;;;;;12.00;99.90;;;;;;5101873;28;20338;-79
2023/07/04 01:20:47;;;;;;;;;;;11.90;99.90;;;;;;5105539;28;20377;-80
2023/07/04 01:23:15;;;;;;;;;;;11.90;99.90;;;;;;5101088;28;19924;-80
2023/07/04 01:25:47;;;;;;;;;;;12.00;99.90;;;;;;5094864;28;20286;-79
2023/07/04 01:28:13;;;;;;;;;;;11.90;99.90;;;;;;5113189;27;19924;-79
2023/07/04 01:30:40;;;;;;;;;;;12.00;99.90;;;;;;5101356;28;19924;-80
2023/07/04 01:33:08;;;;;;;;;;;12.00;99.90;;;;;;5097431;28;19933;-79
2023/07/04 01:35:34;;;;;;;;;;;12.00;99.90;;;;;;5101226;28;19924;-80
2023/07/04 01:37:59;;;;;;;;;;;12.00;99.90;;;;;;5089098;28;20290;-80
2023/07/04 01:40:25;;;;;;;;;;;12.00;99.90;;;;;;5088487;28;19947;-79
2023/07/04 01:42:51;;;;;;;;;;;12.10;99.90;;;;;;5091014;28;19924;-79
2023/07/04 01:45:17;;;;;;;;;;;11.90;99.90;;;;;;5101453;28;19924;-80
2023/07/04 01:47:43;;;;;;;;;;;12.00;99.90;;;;;;5099298;28;19930;-79
2023/07/04 01:50:10;;;;;;;;;;;12.00;99.90;;;;;;5091201;28;19972;-78
2023/07/04 01:52:36;;;;;;;;;;;12.00;99.90;;;;;;5096585;28;19932;-80
2023/07/04 01:55:01;;;;;;;;;;;12.00;99.90;;;;;;5096926;28;19924;-80
2023/07/04 01:57:27;;;;;;;;;;;12.00;99.90;;;;;;5090361;28;19924;-81
2023/07/04 01:59:52;;;;;;;;;;;12.00;99.90;;;;;;5097281;28;19955;-80
2023/07/04 02:02:18;;;;;;;;;;;11.90;99.90;;;;;;5107357;28;19978;-79
2023/07/04 02:04:44;;;;;;;;;;;12.00;99.90;;;;;;5099481;28;20019;-79
2023/07/04 02:07:11;;;;;;;;;;;11.90;99.90;;;;;;5094655;28;20989;-79
2023/07/04 02:09:37;;;;;;;;;;;11.90;99.90;;;;;;5097911;28;19928;-79
2023/07/04 02:12:02;;;;;;;;;;;11.90;99.90;;;;;;5093257;28;19946;-81
2023/07/04 02:14:28;;;;;;;;;;;11.90;99.90;;;;;;5100355;28;19930;-80
2023/07/04 02:16:54;;;;;;;;;;;11.90;99.90;;;;;;5095211;28;19939;-80
2023/07/04 02:19:19;;;;;;;;;;;11.90;99.90;;;;;;5098121;28;20370;-80
2023/07/04 02:21:45;;;;;;;;;;;12.10;99.90;;;;;;5099165;28;19924;-80
2023/07/04 02:24:10;;;;;;;;;;;12.00;99.90;;;;;;5096120;28;19925;-79
2023/07/04 02:26:36;;;;;;;;;;;11.90;99.90;;;;;;5095088;28;20412;-80
2023/07/04 02:29:02;;;;;;;;;;;11.80;99.90;;;;;;5095222;28;19924;-81
2023/07/04 02:31:28;;;;;;;;;;;11.90;99.90;;;;;;5092899;28;20015;-80
2023/07/04 02:33:53;;;;;;;;;;;11.90;99.90;;;;;;5098976;28;19931;-79
2023/07/04 02:36:19;;;;;;;;;;;11.90;99.90;;;;;;5100705;28;19932;-79
2023/07/04 02:38:45;;;;;;;;;;;11.90;99.90;;;;;;5112193;28;19987;-79
2023/07/04 02:41:11;;;;;;;;;;;12.30;99.90;;;;;;5108764;28;19972;-80
2023/07/04 02:43:36;;;;;;;;;;;12.00;99.90;;;;;;5097331;28;19924;-80
2023/07/04 02:46:03;;;;;;;;;;;11.90;99.90;;;;;;5100127;28;19928;-81
2023/07/04 02:48:30;;;;;;;;;;;12.00;99.90;;;;;;5109019;28;19923;-80
2023/07/04 02:50:55;;;;;;;;;;;11.90;99.90;;;;;;5100996;28;19931;-80
2023/07/04 02:53:22;;;;;;;;;;;12.00;99.90;;;;;;5123222;28;19927;-79
2023/07/04 02:55:48;;;;;;;;;;;12.00;99.90;;;;;;5114646;28;20023;-80
2023/07/04 02:58:14;;;;;;;;;;;12.00;99.90;;;;;;5108192;28;19939;-79
2023/07/04 03:00:40;;;;;;;;;;;12.00;99.90;;;;;;5100403;28;19931;-80
2023/07/04 03:03:05;;;;;;;;;;;12.00;99.90;;;;;;5097909;28;19928;-79
2023/07/04 03:05:31;;;;;;;;;;;12.10;99.90;;;;;;5098440;28;19940;-80
2023/07/04 03:07:56;;;;;;;;;;;12.10;99.90;;;;;;5097979;28;20265;-80
2023/07/04 03:10:22;;;;;;;;;;;12.10;99.90;;;;;;5113224;28;19930;-79
2023/07/04 03:12:47;;;;;;;;;;;12.10;99.90;;;;;;5106192;28;19959;-79
2023/07/04 03:15:13;;;;;;;;;;;12.20;99.90;;;;;;5096644;28;19977;-79
2023/07/04 03:17:38;;;;;;;;;;;12.10;99.90;;;;;;5096333;28;20381;-78
2023/07/04 03:20:09;;;;;;;;;;;12.10;99.90;;;;;;5101736;28;19931;-79
2023/07/04 03:22:35;;;;;;;;;;;12.10;99.90;;;;;;5098177;28;19931;-80
2023/07/04 03:25:00;;;;;;;;;;;12.10;99.90;;;;;;5093355;28;19924;-79
2023/07/04 03:27:26;;;;;;;;;;;12.20;99.90;;;;;;5102773;28;19970;-79
2023/07/04 03:29:51;;;;;;;;;;;12.10;99.90;;;;;;5097074;28;19924;-79
2023/07/04 03:32:17;;;;;;;;;;;12.10;99.90;;;;;;5103351;28;19946;-79
2023/07/04 03:34:44;;;;;;;;;;;12.10;99.90;;;;;;5106137;28;19931;-79
2023/07/04 03:37:09;;;;;;;;;;;12.10;99.90;;;;;;5121407;27;19920;-81
2023/07/04 03:39:35;;;;;;;;;;;12.10;99.90;;;;;;5111722;28;19951;-79
2023/07/04 03:42:00;;;;;;;;;;;12.10;99.90;;;;;;5096914;28;19934;-79
2023/07/04 03:44:26;;;;;;;;;;;12.10;99.90;;;;;;5095698;28;19921;-79
2023/07/04 03:46:51;;;;;;;;;;;12.10;99.90;;;;;;5101972;28;19933;-79
2023/07/04 03:49:17;;;;;;;;;;;12.10;99.90;;;;;;5100597;28;20300;-78
2023/07/04 03:51:42;;;;;;;;;;;12.20;99.90;;;;;;5106760;28;19911;-78
2023/07/04 03:54:08;;;;;;;;;;;12.20;99.90;;;;;;5110225;28;19924;-80
2023/07/04 03:56:34;;;;;;;;;;;12.20;99.90;;;;;;5091487;28;21208;-79
2023/07/04 03:58:59;;;;;;;;;;;12.20;99.90;;;;;;5093037;28;19971;-79
2023/07/04 04:01:25;;;;;;;;;;;12.20;99.90;;;;;;5101731;28;20381;-79
2023/07/04 04:03:53;;;;;;;;;;;12.20;99.90;;;;;;5090230;28;19933;-78
2023/07/04 04:06:19;;;;;;;;;;;12.20;99.90;;;;;;5095719;28;20242;-79
2023/07/04 04:08:45;;;;;;;;;;;12.20;99.90;;;;;;5089776;28;19932;-79
2023/07/04 04:11:29;;;;;;;;;;;12.20;99.90;;;;;;5103576;28;19966;-78
2023/07/04 04:14:13;;;;;;;;;;;12.20;99.90;;;;;;5084966;28;19955;-78
2023/07/04 04:16:39;;;;;;;;;;;12.20;99.90;;;;;;5092626;28;19924;-79
2023/07/04 04:19:04;;;;;;;;;;;12.20;99.90;;;;;;5096887;28;19978;-78
2023/07/04 04:21:30;;;;;;;;;;;12.20;99.90;;;;;;5093107;28;19924;-79
2023/07/04 04:23:55;;;;;;;;;;;12.20;99.90;;;;;;5089998;28;19933;-78
2023/07/04 04:26:21;;;;;;;;;;;12.20;99.90;;;;;;5108199;28;19927;-81
2023/07/04 04:28:47;;;;;;;;;;;12.40;99.90;;;;;;5085022;28;20001;-79
2023/07/04 04:31:13;;;;;;;;;;;12.30;99.90;;;;;;5095005;28;19976;-79
2023/07/04 04:33:38;;;;;;;;;;;12.30;99.90;;;;;;5086458;28;19930;-79
2023/07/04 04:36:04;;;;;;;;;;;12.40;99.90;;;;;;5096515;28;19972;-79
2023/07/04 04:38:31;;;;;;;;;;;12.40;99.90;;;;;;5094826;28;20039;-78
2023/07/04 04:41:03;;;;;;;;;;;12.50;99.90;;;;;;5090482;28;19924;-78
2023/07/04 04:43:32;;;;;;;;;;;12.50;99.90;;;;;;5091368;28;19928;-78
2023/07/04 04:46:01;;;;;;;;;;;12.50;99.90;;;;;;5088761;28;19932;-78
2023/07/04 04:48:32;;;;;;;;;;;12.50;99.90;;;;;;5088609;28;20447;-78
2023/07/04 04:51:00;;;;;;;;;;;12.60;99.90;;;;;;5093275;28;19964;-79
2023/07/04 04:53:30;;;;;;;;;;;12.50;99.90;;;;;;5093886;28;20371;-79
2023/07/04 04:55:55;;;;;;;;;;;12.60;99.90;;;;;;5095502;28;19940;-78
2023/07/04 04:58:21;;;;;;;;;;;13.00;99.90;;;;;;5088915;28;19974;-79
2023/07/04 05:00:47;;;;;;;;;;;12.70;99.90;;;;;;5086280;28;19924;-80
2023/07/04 05:03:13;;;;;;;;;;;12.70;99.90;;;;;;5076784;28;19925;-79
2023/07/04 05:05:38;;;;;;;;;;;12.70;99.90;;;;;;5089128;28;20363;-79
2023/07/04 05:08:04;;;;;;;;;;;12.80;99.90;;;;;;5097334;28;19924;-78
2023/07/04 05:10:30;;;;;;;;;;;12.80;99.90;;;;;;5093265;28;20385;-79
2023/07/04 05:12:57;;;;;;;;;;;13.30;99.90;;;;;;5096036;28;20080;-79
2023/07/04 05:15:23;;;;;;;;;;;12.90;99.90;;;;;;5091729;28;19980;-79
2023/07/04 05:17:49;;;;;;;;;;;12.90;99.90;;;;;;5093295;28;19931;-79
2023/07/04 05:20:22;;;;;;;;;;;12.90;99.90;;;;;;5093236;28;19921;-80
2023/07/04 05:22:48;;;;;;;;;;;13.00;99.90;;;;;;5102415;28;19935;-80
2023/07/04 05:25:13;;;;;;;;;;;13.00;99.90;;;;;;5093212;28;19928;-80
2023/07/04 05:27:39;;;;;;;;;;;13.10;99.90;;;;;;5101193;28;19925;-79
2023/07/04 05:30:05;;;;;;;;;;;13.10;99.90;;;;;;5098627;28;20366;-79
2023/07/04 05:32:30;;;;;;;;;;;13.20;99.90;;;;;;5109092;28;19968;-79
2023/07/04 05:34:56;;;;;;;;;;;13.20;99.90;;;;;;5103271;28;19973;-77
2023/07/04 05:37:21;;;;;;;;;;;13.20;99.90;;;;;;5096411;28;19936;-79
2023/07/04 05:39:47;;;;;;;;;;;13.30;99.90;;;;;;5076927;28;19924;-79
2023/07/04 05:42:13;;;;;;;;;;;13.30;99.90;;;;;;5100644;28;20064;-79
2023/07/04 05:44:39;;;;;;;;;;;13.50;99.90;;;;;;5095584;28;19924;-79
2023/07/04 05:47:04;;;;;;;;;;;13.60;99.90;;;;;;5102799;28;19930;-78
2023/07/04 05:49:30;;;;;;;;;;;13.70;99.90;;;;;;5096556;28;19963;-77
2023/07/04 05:51:56;;;;;;;;;;;13.70;99.90;;;;;;5093886;28;20018;-78
2023/07/04 05:54:21;;;;;;;;;;;13.80;99.90;;;;;;5100884;28;19928;-78
2023/07/04 05:56:50;;;;;;;;;;;13.80;99.90;;;;;;5106055;28;19975;-79
2023/07/04 05:59:16;;;;;;;;;;;13.90;99.90;;;;;;5109756;28;19935;-79
2023/07/04 06:01:43;;;;;;;;;;;13.90;99.90;;;;;;5103993;28;19924;-78
2023/07/04 06:04:09;;;;;;;;;;;13.90;99.90;;;;;;5097484;28;19931;-78
2023/07/04 06:06:37;;;;;;;;;;;14.00;99.90;;;;;;5115120;28;19932;-79
2023/07/04 06:09:04;;;;;;;;;;;14.10;99.90;;;;;;5099268;28;19924;-79
2023/07/04 06:11:31;;;;;;;;;;;14.30;99.90;;;;;;5097974;28;20297;-78
2023/07/04 06:13:57;;;;;;;;;;;14.60;99.90;;;;;;5114977;28;19969;-78
2023/07/04 06:16:22;;;;;;;;;;;14.70;99.90;;;;;;5101058;28;19920;-79
2023/07/04 06:18:48;;;;;;;;;;;14.70;99.90;;;;;;5104823;28;19931;-78
2023/07/04 06:21:15;;;;;;;;;;;15.00;99.90;;;;;;5112398;28;19939;-79
2023/07/04 06:23:41;;;;;;;;;;;14.80;99.90;;;;;;5099434;28;19924;-79
2023/07/04 06:26:07;;;;;;;;;;;14.80;99.90;;;;;;5117728;27;19924;-79
2023/07/04 06:28:34;;;;;;;;;;;14.90;99.90;;;;;;5102686;28;20389;-79
2023/07/04 06:31:02;;;;;;;;;;;14.90;99.90;;;;;;5094251;28;19932;-81
2023/07/04 06:33:27;;;;;;;;;;;15.00;99.90;;;;;;5096460;28;19977;-78
2023/07/04 06:35:53;;;;;;;;;;;15.00;99.90;;;;;;5103708;28;19908;-76
2023/07/04 06:38:20;;;;;;;;;;;15.00;99.90;;;;;;5103371;28;20499;-78
2023/07/04 06:40:56;;;;;;;;;;;15.00;99.90;;;;;;5106551;28;19928;-78
2023/07/04 06:43:22;;;;;;;;;;;15.10;99.90;;;;;;5104585;28;20007;-78
2023/07/04 06:45:47;;;;;;;;;;;15.30;99.90;;;;;;5104330;28;19931;-78
2023/07/04 06:48:13;;;;;;;;;;;15.30;99.90;;;;;;5084913;28;20273;-79
2023/07/04 06:50:38;;;;;;;;;;;15.30;99.90;;;;;;5085308;28;19924;-80
2023/07/04 06:53:04;;;;;;;;;;;15.50;99.90;;;;;;5065016;28;19921;-79
2023/07/04 06:55:29;;;;;;;;;;;15.60;99.90;;;;;;5117785;28;19924;-78
2023/07/04 06:57:55;;;;;;;;;;;15.60;99.90;;;;;;5095203;28;19928;-77
2023/07/04 07:00:21;;;;;;;;;;;15.70;99.90;;;;;;5096744;28;19935;-78
2023/07/04 07:02:52;;;;;;;;;;;15.70;99.90;;;;;;5097705;28;19924;-78
2023/07/04 07:05:18;;;;;;;;;;;15.70;99.90;;;;;;5107606;28;19924;-78
2023/07/04 07:07:45;;;;;;;;;;;15.90;99.90;;;;;;5104546;28;19934;-79
2023/07/04 07:10:10;;;;;;;;;;;16.10;99.90;;;;;;5102783;28;20019;-77
2023/07/04 07:12:36;;;;;;;;;;;16.30;99.90;;;;;;5091888;28;19956;-76
2023/07/04 07:15:02;;;;;;;;;;;16.50;99.90;;;;;;5098193;28;19931;-79
2023/07/04 07:17:27;;;;;;;;;;;16.70;99.90;;;;;;5083683;28;20363;-78
2023/07/04 07:19:53;;;;;;;;;;;16.80;99.90;;;;;;5084403;28;19924;-79
2023/07/04 07:22:18;;;;;;;;;;;16.80;99.90;;;;;;5093327;28;19924;-78
2023/07/04 07:24:44;;;;;;;;;;;16.90;99.90;;;;;;5099602;28;20429;-77
2023/07/04 07:27:09;;;;;;;;;;;16.90;99.90;;;;;;5093516;28;19935;-78
2023/07/04 07:29:35;;;;;;;;;;;16.90;99.90;;;;;;5096817;28;19928;-77
2023/07/04 07:32:05;;;;;;;;;;;16.90;99.90;;;;;;5099052;28;20289;-79
2023/07/04 07:34:30;;;;;;;;;;;16.90;99.90;;;;;;5094080;28;19978;-79
2023/07/04 07:36:56;;;;;;;;;;;17.10;99.90;;;;;;5088586;28;19936;-79
2023/07/04 07:39:22;;;;;;;;;;;17.20;99.90;;;;;;5102205;28;19928;-79
2023/07/04 07:41:48;;;;;;;;;;;17.20;99.90;;;;;;5102908;28;20450;-77
2023/07/04 07:44:15;;;;;;;;;;;17.10;99.90;;;;;;5102705;28;19924;-77
2023/07/04 07:46:41;;;;;;;;;;;17.10;99.90;;;;;;5088623;28;19932;-77
2023/07/04 07:49:07;;;;;;;;;;;17.00;99.90;;;;;;5084463;28;20393;-78
2023/07/04 07:51:33;;;;;;;;;;;17.00;99.90;;;;;;5092326;28;19978;-79
2023/07/04 07:53:59;;;;;;;;;;;16.90;99.90;;;;;;5096310;28;19924;-78
2023/07/04 07:56:26;;;;;;;;;;;16.90;99.90;;;;;;5110085;28;19978;-77
2023/07/04 07:58:51;;;;;;;;;;;16.90;99.90;;;;;;5086026;28;19947;-78
2023/07/04 08:01:25;;;;;;;;;;;16.90;99.90;;;;;;5099430;28;19932;-77
2023/07/04 08:03:50;;;;;;;;;;;17.00;99.90;;;;;;5088367;28;19936;-78
2023/07/04 08:06:42;;;;;;;;;;;17.10;99.90;;;;;;5088737;28;19935;-77
2023/07/04 08:09:10;;;;;;;;;;;17.20;99.90;;;;;;5087531;28;20404;-78
2023/07/04 08:11:39;;;;;;;;;;;17.20;99.90;;;;;;5100935;28;19933;-79
2023/07/04 08:14:05;;;;;;;;;;;17.20;99.90;;;;;;5082859;28;20362;-77
2023/07/04 08:16:39;;;;;;;;;;;17.20;99.90;;;;;;5086599;28;19931;-79
2023/07/04 08:19:05;;;;;;;;;;;17.30;99.90;;;;;;5095636;28;20357;-79
2023/07/04 08:21:31;;;;;;;;;;;17.30;99.90;;;;;;5102135;28;19963;-78
2023/07/04 08:23:56;;;;;;;;;;;17.30;99.90;;;;;;5081691;28;20336;-78
2023/07/04 08:26:24;;;;;;;;;;;17.30;99.90;;;;;;5077621;28;19924;-78
2023/07/04 08:28:52;;;;;;;;;;;17.30;99.90;;;;;;5085752;28;20349;-78
2023/07/04 08:31:18;;;;;;;;;;;17.40;99.90;;;;;;5098966;28;19924;-78
2023/07/04 08:33:45;;;;;;;;;;;17.50;99.90;;;;;;5093019;28;19924;-80
2023/07/04 08:36:10;;;;;;;;;;;17.50;99.90;;;;;;5079406;28;19942;-78
2023/07/04 08:38:36;;;;;;;;;;;17.60;99.90;;;;;;5081690;28;20007;-79
2023/07/04 08:41:02;;;;;;;;;;;17.60;99.90;;;;;;5085350;28;20019;-78
2023/07/04 08:43:44;;;;;;;;;;;17.60;99.90;;;;;;5098276;28;19928;-78
2023/07/04 08:46:10;;;;;;;;;;;17.70;99.90;;;;;;5094281;28;19924;-79
2023/07/04 08:48:38;;;;;;;;;;;17.80;99.90;;;;;;5082487;28;20023;-78
2023/07/04 08:51:04;;;;;;;;;;;17.90;99.90;;;;;;5082161;28;19930;-77
2023/07/04 08:53:30;;;;;;;;;;;17.90;99.90;;;;;;5081812;28;20019;-79
2023/07/04 08:55:55;;;;;;;;;;;17.90;99.90;;;;;;5095496;28;19932;-78
2023/07/04 08:58:23;;;;;;;;;;;18.00;99.90;;;;;;5098025;28;19929;-78
2023/07/04 09:00:49;;;;;;;;;;;18.10;99.90;;;;;;5089690;28;19931;-79
2023/07/04 09:03:24;;;;;;;;;;;18.20;99.90;;;;;;5096758;28;19924;-78
2023/07/04 09:06:04;;;;;;;;;;;18.40;99.90;;;;;;5099912;28;19924;-78
2023/07/04 09:08:47;;;;;;;;;;;18.60;99.90;;;;;;5097239;28;19940;-79
2023/07/04 09:11:15;;;;;;;;;;;18.60;99.90;;;;;;5080211;28;19925;-78
2023/07/04 09:13:43;;;;;;;;;;;18.80;99.90;;;;;;5098065;28;19983;-78
2023/07/04 09:16:16;;;;;;;;;;;18.90;99.90;;;;;;5101259;28;19924;-77
2023/07/04 09:18:42;;;;;;;;;;;19.00;99.90;;;;;;5093121;28;19969;-78
2023/07/04 09:21:12;;;;;;;;;;;18.90;99.90;;;;;;5098477;28;19959;-79
2023/07/04 09:23:38;;;;;;;;;;;18.70;99.90;;;;;;5096368;28;20275;-78
2023/07/04 09:26:04;;;;;;;;;;;18.60;99.90;;;;;;5096895;28;20341;-78
2023/07/04 09:28:31;;;;;;;;;;;18.50;99.90;;;;;;5097749;28;20310;-79
2023/07/04 09:30:58;;;;;;;;;;;18.60;99.90;;;;;;5100444;28;19977;-78
2023/07/04 09:33:25;;;;;;;;;;;18.70;99.90;;;;;;5107002;28;19931;-78
2023/07/04 09:35:51;;;;;;;;;;;18.70;99.90;;;;;;5086433;28;19924;-78
2023/07/04 09:38:17;;;;;;;;;;;18.40;99.90;;;;;;5080491;28;19936;-77
2023/07/04 09:40:50;;;;;;;;;;;18.40;99.90;;;;;;5081237;28;19925;-77
2023/07/04 09:43:27;;;;;;;;;;;18.30;99.90;;;;;;5094625;28;19928;-79
2023/07/04 09:46:08;;;;;;;;;;;18.40;99.90;;;;;;5100779;28;19927;-79
2023/07/04 09:48:34;;;;;;;;;;;18.50;99.90;;;;;;5099531;28;19920;-78
2023/07/04 09:51:15;;;;;;;;;;;18.50;99.90;;;;;;5101102;28;19931;-79
2023/07/04 09:53:40;;;;;;;;;;;18.50;99.90;;;;;;5099406;28;20377;-78
2023/07/04 09:56:06;;;;;;;;;;;18.60;99.90;;;;;;5099717;28;19939;-77
2023/07/04 09:58:31;;;;;;;;;;;18.70;99.90;;;;;;5094922;28;20388;-77
2023/07/04 10:01:09;;;;;;;;;;;18.60;99.90;;;;;;5097341;28;20051;-78
2023/07/04 10:03:39;;;;;;;;;;;18.60;99.90;;;;;;5094197;28;19950;-79
2023/07/04 10:06:09;;;;;;;;;;;18.80;99.90;;;;;;5103384;28;19924;-78
2023/07/04 10:08:53;;;;;;;;;;;19.10;99.90;;;;;;5104037;28;19932;-78
2023/07/04 10:11:23;;;;;;;;;;;19.50;99.90;;;;;;5095525;28;19947;-79
2023/07/04 10:13:57;;;;;;;;;;;19.50;99.90;;;;;;5096337;28;20285;-79
2023/07/04 10:16:23;;;;;;;;;;;19.40;99.40;;;;;;5086045;28;19928;-79
2023/07/04 10:18:49;;;;;;;;;;;19.30;99.90;;;;;;5101774;28;19924;-78
2023/07/04 10:21:15;;;;;;;;;;;19.60;99.90;;;;;;5090768;28;20011;-79
2023/07/04 10:23:41;;;;;;;;;;;19.80;99.90;;;;;;5106173;28;19924;-78
2023/07/04 10:26:08;;;;;;;;;;;19.90;98.90;;;;;;5124297;28;19924;-79
2023/07/04 10:28:34;;;;;;;;;;;20.10;98.40;;;;;;5091282;28;20443;-78
2023/07/04 10:31:01;;;;;;;;;;;20.30;97.70;;;;;;5091394;28;19931;-77
2023/07/04 10:33:33;;;;;;;;;;;20.20;98.50;;;;;;5094929;28;19924;-78
2023/07/04 10:35:58;;;;;;;;;;;20.00;98.60;;;;;;5112348;28;20436;-78
2023/07/04 10:38:32;;;;;;;;;;;19.80;96.10;;;;;;5083020;28;19996;-78
2023/07/04 10:40:59;;;;;;;;;;;19.60;97.20;;;;;;5095593;28;20015;-78
2023/07/04 10:43:30;;;;;;;;;;;19.60;98.40;;;;;;5076356;28;20302;-79
2023/07/04 10:45:58;;;;;;;;;;;19.80;98.70;;;;;;5091256;28;19927;-77
2023/07/04 10:48:24;;;;;;;;;;;20.20;98.20;;;;;;5110044;28;19924;-77
2023/07/04 10:50:53;;;;;;;;;;;20.30;98.00;;;;;;5094694;28;19935;-79
2023/07/04 10:53:19;;;;;;;;;;;20.50;99.90;;;;;;5092823;28;19978;-78
2023/07/04 10:55:50;;;;;;;;;;;20.70;97.50;;;;;;5097738;28;20370;-79
2023/07/04 10:58:18;;;;;;;;;;;20.90;96.10;;;;;;5101565;28;19924;-77
2023/07/04 11:00:53;;;;;;;;;;;21.30;97.10;;;;;;5097044;28;19964;-78
2023/07/04 11:03:25;;;;;;;;;;;21.50;96.40;;;;;;5097204;28;19974;-79
2023/07/04 11:05:52;;;;;;;;;;;21.40;94.10;;;;;;5101259;28;19925;-80
2023/07/04 11:08:19;;;;;;;;;;;21.10;94.60;;;;;;5101574;28;19939;-78
2023/07/04 11:10:48;;;;;;;;;;;21.00;98.00;;;;;;5098095;28;20362;-78
2023/07/04 11:13:15;;;;;;;;;;;20.90;95.30;;;;;;5112128;27;20339;-78
2023/07/04 11:15:44;;;;;;;;;;;20.80;95.40;;;;;;5094114;28;19924;-79
2023/07/04 11:18:24;;;;;;;;;;;20.50;95.00;;;;;;5094668;28;19909;-79
2023/07/04 11:20:49;;;;;;;;;;;20.60;95.20;;;;;;5099808;28;19924;-79
2023/07/04 11:23:19;;;;;;;;;;;20.70;96.60;;;;;;5106012;28;19924;-78
2023/07/04 11:25:44;;;;;;;;;;;20.80;95.40;;;;;;5102165;28;19950;-80
2023/07/04 11:28:25;;;;;;;;;;;21.10;95.00;;;;;;5100693;28;19928;-80
2023/07/04 11:30:51;;;;;;;;;;;21.40;95.10;;;;;;5105507;28;19932;-78
2023/07/04 11:33:40;;;;;;;;;;;21.70;94.60;;;;;;5095530;28;19924;-79
2023/07/04 11:36:17;;;;;;;;;;;21.80;94.30;;;;;;5099778;28;20015;-78
2023/07/04 11:38:44;;;;;;;;;;;21.80;93.80;;;;;;5101413;28;19963;-79
2023/07/04 11:41:10;;;;;;;;;;;21.60;92.50;;;;;;5102145;28;19923;-78
2023/07/04 11:43:41;;;;;;;;;;;21.50;92.50;;;;;;5096869;28;19931;-79
2023/07/04 11:46:07;;;;;;;;;;;21.80;93.20;;;;;;5099620;28;19924;-79
2023/07/04 11:48:34;;;;;;;;;;;22.00;93.30;;;;;;5099774;28;19930;-79
2023/07/04 11:51:11;;;;;;;;;;;22.20;92.00;;;;;;5098977;28;19931;-78
2023/07/04 11:53:47;;;;;;;;;;;22.50;92.50;;;;;;5107551;28;19946;-78
2023/07/04 11:56:23;;;;;;;;;;;22.70;91.60;;;;;;5095501;28;19925;-78
2023/07/04 11:59:08;;;;;;;;;;;23.00;92.70;;;;;;5099448;28;19950;-79
2023/07/04 12:01:55;;;;;;;;;;;23.20;90.70;;;;;;5095927;28;19964;-76
2023/07/04 12:04:43;;;;;;;;;;;23.40;90.60;;;;;;5083390;28;19963;-77
2023/07/04 12:07:12;;;;;;;;;;;23.30;89.90;;;;;;5082228;28;19926;-79
2023/07/04 12:09:46;;;;;;;;;;;23.40;90.40;;;;;;5092716;28;20428;-78
2023/07/04 12:12:17;;;;;;;;;;;23.40;87.60;;;;;;5100543;28;19924;-80
2023/07/04 12:14:48;;;;;;;;;;;23.40;86.10;;;;;;5097603;28;20459;-79
2023/07/04 12:17:14;;;;;;;;;;;23.60;88.00;;;;;;5079901;28;19931;-78
2023/07/04 12:19:41;;;;;;;;;;;23.50;86.00;;;;;;5111891;28;19924;-80
2023/07/04 12:22:12;;;;;;;;;;;23.60;88.90;;;;;;5104152;28;19928;-78
2023/07/04 12:24:38;;;;;;;;;;;23.60;86.90;;;;;;5111635;28;19969;-78
2023/07/04 12:27:03;;;;;;;;;;;23.60;86.00;;;;;;5107473;28;19920;-79
2023/07/04 12:29:29;;;;;;;;;;;23.40;86.70;;;;;;5108090;28;19924;-79
2023/07/04 12:32:21;;;;;;;;;;;23.20;84.80;;;;;;5106305;28;19924;-78
2023/07/04 12:34:46;;;;;;;;;;;22.90;88.20;;;;;;5084066;28;20374;-78
2023/07/04 12:37:19;;;;;;;;;;;22.80;86.10;;;;;;5104889;28;19931;-79
2023/07/04 12:39:46;;;;;;;;;;;22.80;86.60;;;;;;5112569;28;19923;-80
2023/07/04 12:42:20;;;;;;;;;;;22.80;87.40;;;;;;5108755;28;19924;-77
2023/07/04 12:44:46;;;;;;;;;;;22.90;87.40;;;;;;5086517;28;19929;-77
2023/07/04 12:47:14;;;;;;;;;;;23.00;87.20;;;;;;5093818;28;19928;-78
2023/07/04 12:49:39;;;;;;;;;;;23.10;87.20;;;;;;5093806;28;19938;-78
2023/07/04 12:52:06;;;;;;;;;;;23.20;85.00;;;;;;5084666;28;19933;-78
2023/07/04 12:54:33;;;;;;;;;;;23.20;86.40;;;;;;5099194;28;19952;-78
2023/07/04 12:56:59;;;;;;;;;;;23.20;84.50;;;;;;5092041;28;19924;-77
2023/07/04 12:59:35;;;;;;;;;;;23.20;85.00;;;;;;5098386;28;19924;-78
2023/07/04 13:02:03;;;;;;;;;;;23.10;86.30;;;;;;5094876;28;20019;-79
2023/07/04 13:04:29;;;;;;;;;;;23.20;86.50;;;;;;5097065;28;19928;-77
2023/07/04 13:06:56;;;;;;;;;;;23.30;85.00;;;;;;5095021;28;20365;-81
2023/07/04 13:09:21;;;;;;;;;;;23.20;82.80;;;;;;5089733;28;19935;-79
2023/07/04 13:11:47;;;;;;;;;;;23.00;84.00;;;;;;5099991;28;19924;-78
2023/07/04 13:14:13;;;;;;;;;;;22.80;85.50;;;;;;5095859;28;20393;-78
2023/07/04 13:16:39;;;;;;;;;;;22.60;85.40;;;;;;5097844;28;19930;-80
2023/07/04 13:19:05;;;;;;;;;;;22.40;85.50;;;;;;5093363;28;19925;-77
2023/07/04 13:21:34;;;;;;;;;;;22.50;85.80;;;;;;5091941;28;19924;-77
2023/07/04 13:24:01;;;;;;;;;;;22.60;84.20;;;;;;5102485;28;19963;-77
2023/07/04 13:26:29;;;;;;;;;;;22.80;86.20;;;;;;5078957;28;19929;-78
2023/07/04 13:28:56;;;;;;;;;;;23.00;84.70;;;;;;5088432;28;20266;-78
2023/07/04 13:31:29;;;;;;;;;;;23.20;83.80;;;;;;5090741;28;20402;-78
2023/07/04 13:33:56;;;;;;;;;;;23.30;84.60;;;;;;5095237;28;19931;-78
2023/07/04 13:36:32;;;;;;;;;;;23.50;83.90;;;;;;5115686;28;19928;-76
2023/07/04 13:38:57;;;;;;;;;;;23.50;81.70;;;;;;5098071;28;20353;-78
2023/07/04 13:41:23;;;;;;;;;;;23.40;81.30;;;;;;5079253;28;19936;-78
2023/07/04 13:43:48;;;;;;;;;;;23.30;81.10;;;;;;5097617;28;19935;-77
2023/07/04 13:46:14;;;;;;;;;;;23.00;82.70;;;;;;5096412;28;20034;-78
2023/07/04 13:48:39;;;;;;;;;;;22.80;85.70;;;;;;5092724;28;20364;-78
2023/07/04 13:51:05;;;;;;;;;;;22.90;84.00;;;;;;5088663;28;19928;-78
2023/07/04 13:53:31;;;;;;;;;;;23.10;86.50;;;;;;5081312;28;19924;-78
2023/07/04 13:55:57;;;;;;;;;;;23.40;85.30;;;;;;5093207;28;19961;-78
2023/07/04 13:58:23;;;;;;;;;;;23.30;82.40;;;;;;5094942;28;19924;-78
2023/07/04 14:00:48;;;;;;;;;;;23.20;84.00;;;;;;5095573;28;20002;-79
2023/07/04 14:03:14;;;;;;;;;;;23.10;84.40;;;;;;5087215;28;19924;-78
2023/07/04 14:05:40;;;;;;;;;;;22.90;81.70;;;;;;5096306;28;19924;-78
2023/07/04 14:08:07;;;;;;;;;;;22.50;82.80;;;;;;5100168;28;19935;-78
2023/07/04 14:10:33;;;;;;;;;;;22.40;83.40;;;;;;5105573;28;19924;-78
2023/07/04 14:12:59;;;;;;;;;;;22.00;83.80;;;;;;5101740;28;19930;-79
2023/07/04 14:15:25;;;;;;;;;;;22.20;83.90;;;;;;5098262;28;20035;-77
2023/07/04 14:17:51;;;;;;;;;;;22.30;85.50;;;;;;5099905;28;19957;-78
2023/07/04 14:20:17;;;;;;;;;;;22.20;83.50;;;;;;5113089;27;19935;-77